createdAt,value
2022-11-16T00:02:18.867Z,10.56
2022-11-16T00:05:03.767Z,10.58
2022-11-16T00:07:48.727Z,10.57
2022-11-16T00:10:33.819Z,10.58
2022-11-16T00:13:18.875Z,10.58
2022-11-16T00:16:05.203Z,10.58
2022-11-16T00:18:55.997Z,10.55
2022-11-16T00:21:41.446Z,10.57
2022-11-16T00:24:26.342Z,10.54
2022-11-16T00:27:11.172Z,10.56
2022-11-16T00:29:56.080Z,10.58
2022-11-16T00:32:41.285Z,10.58
2022-11-16T00:35:26.321Z,10.52
2022-11-16T00:38:11.495Z,10.51
2022-11-16T00:40:56.290Z,10.52
2022-11-16T00:43:41.637Z,10.52
2022-11-16T00:46:26.490Z,10.51
2022-11-16T00:49:11.565Z,10.51
2022-11-16T00:51:56.441Z,10.53
2022-11-16T00:54:41.508Z,10.55
2022-11-16T00:57:26.555Z,10.52
2022-11-16T01:00:12.492Z,10.52
2022-11-16T01:02:57.727Z,10.55
2022-11-16T01:05:42.768Z,10.56
2022-11-16T01:08:28.565Z,10.56
2022-11-16T01:11:34.258Z,10.53
2022-11-16T01:14:19.285Z,10.50
2022-11-16T01:17:04.771Z,10.50
2022-11-16T01:19:49.714Z,10.55
2022-11-16T01:22:39.235Z,10.54
2022-11-16T01:25:24.421Z,10.57
2022-11-16T01:28:09.453Z,10.57
2022-11-16T01:30:54.726Z,10.59
2022-11-16T01:33:40.163Z,10.57
2022-11-16T01:36:25.221Z,10.57
2022-11-16T01:39:12.839Z,10.59
2022-11-16T01:41:57.894Z,10.58
2022-11-16T01:44:42.902Z,10.58
2022-11-16T01:47:28.693Z,10.58
2022-11-16T01:50:16.759Z,10.54
2022-11-16T01:53:05.572Z,10.50
2022-11-16T01:55:50.717Z,10.43
2022-11-16T01:58:36.484Z,10.41
2022-11-16T02:01:21.857Z,10.40
2022-11-16T02:04:06.869Z,10.46
2022-11-16T02:07:16.814Z,10.50
2022-11-16T02:10:25.229Z,10.50
2022-11-16T02:13:28.138Z,10.44
2022-11-16T02:16:41.045Z,10.46
2022-11-16T02:19:55.602Z,10.41
2022-11-16T02:22:49.766Z,10.40
2022-11-16T02:25:51.247Z,10.38
2022-11-16T02:29:18.945Z,10.45
2022-11-16T02:32:11.970Z,10.46
2022-11-16T02:35:12.866Z,10.42
2022-11-16T02:38:02.494Z,10.39
2022-11-16T02:40:52.753Z,10.41
2022-11-16T02:43:42.348Z,10.41
2022-11-16T02:46:32.398Z,10.43
2022-11-16T02:49:19.179Z,10.46
2022-11-16T02:52:04.706Z,10.45
2022-11-16T02:54:49.577Z,10.45
2022-11-16T02:57:42.316Z,10.44
2022-11-16T03:00:35.768Z,10.47
2022-11-16T03:03:30.497Z,10.48
2022-11-16T03:06:21.560Z,10.48
2022-11-16T03:09:14.104Z,10.45
2022-11-16T03:12:02.034Z,10.43
2022-11-16T03:15:03.267Z,10.45
2022-11-16T03:17:50.189Z,10.38
2022-11-16T03:20:38.155Z,10.39
2022-11-16T03:23:23.297Z,10.41
2022-11-16T03:26:12.674Z,10.43
2022-11-16T03:29:03.033Z,10.43
2022-11-16T03:31:54.406Z,10.44
2022-11-16T03:34:44.229Z,10.43
2022-11-16T03:37:31.157Z,10.41
2022-11-16T03:40:18.298Z,10.43
2022-11-16T03:43:06.314Z,10.42
2022-11-16T03:45:51.371Z,10.42
2022-11-16T03:48:39.121Z,10.42
2022-11-16T03:51:24.390Z,10.38
2022-11-16T03:54:09.410Z,10.40
2022-11-16T03:56:54.470Z,10.41
2022-11-16T03:59:39.478Z,10.37
2022-11-16T04:02:24.405Z,10.40
2022-11-16T04:05:28.266Z,10.38
2022-11-16T04:08:35.235Z,10.38
2022-11-16T04:11:40.796Z,10.44
2022-11-16T04:14:45.820Z,10.43
2022-11-16T04:17:49.612Z,10.40
2022-11-16T04:20:53.204Z,10.42
2022-11-16T04:23:56.781Z,10.46
2022-11-16T04:27:04.111Z,10.44
2022-11-16T04:29:49.207Z,10.45
2022-11-16T04:32:52.669Z,10.45
2022-11-16T04:35:56.212Z,10.47
2022-11-16T04:38:41.214Z,10.49
2022-11-16T04:41:44.891Z,10.56
2022-11-16T04:44:49.999Z,10.63
2022-11-16T04:47:34.849Z,10.73
2022-11-16T04:50:20.690Z,10.74
2022-11-16T04:53:07.322Z,10.70
2022-11-16T04:55:56.655Z,10.64
2022-11-16T04:58:44.385Z,10.60
2022-11-16T05:01:48.080Z,10.58
2022-11-16T05:04:33.423Z,10.53
2022-11-16T05:07:18.403Z,10.48
2022-11-16T05:10:05.279Z,10.42
2022-11-16T05:12:50.143Z,10.41
2022-11-16T05:15:35.303Z,10.37
2022-11-16T05:18:20.278Z,10.35
2022-11-16T05:21:05.291Z,10.28
2022-11-16T05:24:08.939Z,10.22
2022-11-16T05:26:54.029Z,10.17
2022-11-16T05:29:40.430Z,10.06
2022-11-16T05:32:26.961Z,10.06
2022-11-16T05:35:11.777Z,9.97
2022-11-16T05:37:56.913Z,9.87
2022-11-16T05:40:41.995Z,9.76
2022-11-16T05:43:26.946Z,9.64
2022-11-16T05:46:12.104Z,9.60
2022-11-16T05:48:57.218Z,9.65
2022-11-16T05:51:44.231Z,9.51
2022-11-16T05:54:31.093Z,9.29
2022-11-16T05:57:17.319Z,9.19
2022-11-16T06:00:03.790Z,9.13
2022-11-16T06:02:48.677Z,9.08
2022-11-16T06:05:40.477Z,8.98
2022-11-16T06:08:25.934Z,8.95
2022-11-16T06:11:11.335Z,8.79
2022-11-16T06:13:56.426Z,9.03
2022-11-16T06:16:41.653Z,9.11
2022-11-16T06:19:32.048Z,9.05
2022-11-16T06:22:17.488Z,9.03
2022-11-16T06:25:02.642Z,9.03
2022-11-16T06:27:47.454Z,9.08
2022-11-16T06:30:33.308Z,8.96
2022-11-16T06:33:18.522Z,8.81
2022-11-16T06:36:03.662Z,8.97
2022-11-16T06:38:48.605Z,8.95
2022-11-16T06:41:37.593Z,8.98
2022-11-16T06:44:25.268Z,8.93
2022-11-16T06:47:10.154Z,8.95
2022-11-16T06:49:55.301Z,8.94
2022-11-16T06:52:40.506Z,9.14
2022-11-16T06:55:25.490Z,9.09
2022-11-16T06:58:10.409Z,9.17
2022-11-16T07:00:55.539Z,9.10
2022-11-16T07:03:40.572Z,9.13
2022-11-16T07:06:25.787Z,9.17
2022-11-16T07:09:10.617Z,9.05
2022-11-16T07:11:55.754Z,8.88
2022-11-16T07:14:40.948Z,8.80
2022-11-16T07:17:25.781Z,8.77
2022-11-16T07:20:11.975Z,8.72
2022-11-16T07:22:59.601Z,8.66
2022-11-16T07:25:46.662Z,8.54
2022-11-16T07:28:32.823Z,8.44
2022-11-16T07:31:18.201Z,8.37
2022-11-16T07:34:03.145Z,8.25
2022-11-16T07:36:48.182Z,8.28
2022-11-16T07:39:33.252Z,8.21
2022-11-16T07:42:18.514Z,8.11
2022-11-16T07:45:04.093Z,8.14
2022-11-16T07:47:52.211Z,8.15
2022-11-16T07:50:37.042Z,8.15
2022-11-16T07:53:22.542Z,8.15
2022-11-16T07:56:08.121Z,8.13
2022-11-16T07:58:53.284Z,8.14
2022-11-16T08:01:38.597Z,8.21
2022-11-16T08:04:23.570Z,8.26
2022-11-16T08:07:08.582Z,8.33
2022-11-16T08:09:53.857Z,8.36
2022-11-16T08:12:38.741Z,8.33
2022-11-16T08:15:25.188Z,8.32
2022-11-16T08:18:09.902Z,8.35
2022-11-16T08:20:55.130Z,8.37
2022-11-16T08:23:41.052Z,8.38
2022-11-16T08:26:26.291Z,8.44
2022-11-16T08:29:11.429Z,8.54
2022-11-16T08:31:56.532Z,8.59
2022-11-16T08:34:41.790Z,8.65
2022-11-16T08:37:28.033Z,8.77
2022-11-16T08:40:14.473Z,8.79
2022-11-16T08:42:59.609Z,8.94
2022-11-16T08:45:48.456Z,9.09
2022-11-16T08:48:34.750Z,9.17
2022-11-16T08:51:20.803Z,9.37
2022-11-16T08:54:06.431Z,9.55
2022-11-16T08:56:51.750Z,9.69
2022-11-16T08:59:36.658Z,9.86
2022-11-16T09:02:25.316Z,9.88
2022-11-16T09:05:12.044Z,9.94
2022-11-16T09:07:57.011Z,9.95
2022-11-16T09:10:42.187Z,9.94
2022-11-16T09:13:28.192Z,10.00
2022-11-16T09:16:16.431Z,10.01
2022-11-16T09:19:01.666Z,10.12
2022-11-16T09:21:46.413Z,10.22
2022-11-16T09:24:31.614Z,10.38
2022-11-16T09:27:16.807Z,10.46
2022-11-16T09:30:01.875Z,10.63
2022-11-16T09:32:46.956Z,10.71
2022-11-16T09:35:34.318Z,11.05
2022-11-16T09:38:27.001Z,11.29
2022-11-16T09:41:53.587Z,11.64
2022-11-16T09:44:59.744Z,11.52
2022-11-16T09:47:49.434Z,11.55
2022-11-16T09:50:49.495Z,11.46
2022-11-16T09:53:56.761Z,11.54
2022-11-16T09:56:42.989Z,11.56
2022-11-16T09:59:36.988Z,11.54
2022-11-16T10:02:32.365Z,11.34
2022-11-16T10:05:24.762Z,11.55
2022-11-16T10:08:17.239Z,11.81
2022-11-16T10:11:53.633Z,11.81
2022-11-16T10:15:01.283Z,11.74
2022-11-16T10:18:12.977Z,12.01
2022-11-16T10:21:12.860Z,12.13
2022-11-16T10:24:38.417Z,12.00
2022-11-16T10:27:42.580Z,12.07
2022-11-16T10:30:28.014Z,12.02
2022-11-16T10:33:19.529Z,12.33
2022-11-16T10:36:12.426Z,12.01
2022-11-16T10:39:00.132Z,12.43
2022-11-16T10:41:50.362Z,12.39
2022-11-16T10:44:54.943Z,12.22
2022-11-16T10:47:50.106Z,12.85
2022-11-16T10:50:44.032Z,13.03
2022-11-16T10:53:38.847Z,13.58
2022-11-16T10:56:40.265Z,14.55
2022-11-16T10:59:45.318Z,14.08
2022-11-16T11:02:34.402Z,13.27
2022-11-16T11:05:20.750Z,12.96
2022-11-16T11:08:10.534Z,13.07
2022-11-16T11:11:24.758Z,13.00
2022-11-16T11:14:12.011Z,13.03
2022-11-16T11:17:10.315Z,13.20
2022-11-16T11:20:05.427Z,13.39
2022-11-16T11:23:03.007Z,13.16
2022-11-16T11:25:56.619Z,12.95
2022-11-16T11:28:49.378Z,13.13
2022-11-16T11:31:42.056Z,13.14
2022-11-16T11:34:42.605Z,13.57
2022-11-16T11:37:32.362Z,13.39
2022-11-16T11:40:25.905Z,13.28
2022-11-16T11:43:23.076Z,13.12
2022-11-16T11:46:42.220Z,13.19
2022-11-16T11:49:40.492Z,13.27
2022-11-16T11:52:37.643Z,13.29
2022-11-16T11:55:22.475Z,13.24
2022-11-16T11:58:15.136Z,13.25
2022-11-16T12:01:09.164Z,13.27
2022-11-16T12:04:28.147Z,13.25
2022-11-16T12:07:33.481Z,13.29
2022-11-16T12:10:41.480Z,13.13
2022-11-16T12:13:55.946Z,13.01
2022-11-16T12:17:19.958Z,12.84
2022-11-16T12:20:28.709Z,13.03
2022-11-16T12:23:44.725Z,13.32
2022-11-16T12:26:51.521Z,13.51
2022-11-16T12:30:16.303Z,13.81
2022-11-16T12:33:44.334Z,13.54
2022-11-16T12:36:37.011Z,13.53
2022-11-16T12:39:35.469Z,13.52
2022-11-16T12:42:40.298Z,13.41
2022-11-16T12:45:49.799Z,13.22
2022-11-16T12:48:44.366Z,13.27
2022-11-16T12:51:35.138Z,13.33
2022-11-16T12:54:38.654Z,13.14
2022-11-16T12:57:56.343Z,13.18
2022-11-16T13:01:19.971Z,13.28
2022-11-16T13:04:12.555Z,13.45
2022-11-16T13:07:11.171Z,13.34
2022-11-16T13:10:04.767Z,13.21
2022-11-16T13:13:09.120Z,13.06
2022-11-16T13:16:00.209Z,13.22
2022-11-16T13:18:45.492Z,13.02
2022-11-16T13:21:41.474Z,13.10
2022-11-16T13:24:46.574Z,13.30
2022-11-16T13:27:52.363Z,13.23
2022-11-16T13:31:01.959Z,13.16
2022-11-16T13:33:51.352Z,13.06
2022-11-16T13:36:43.139Z,13.01
2022-11-16T13:39:57.416Z,12.98
2022-11-16T13:42:57.166Z,12.85
2022-11-16T13:45:49.841Z,12.73
2022-11-16T13:48:38.054Z,12.64
2022-11-16T13:51:24.519Z,12.61
2022-11-16T13:57:24.417Z,12.52
2022-11-16T14:00:19.883Z,12.40
2022-11-16T14:03:16.848Z,12.36
2022-11-16T14:06:01.762Z,12.42
2022-11-16T14:08:51.189Z,12.50
2022-11-16T14:11:37.642Z,12.57
2022-11-16T14:15:03.911Z,12.64
2022-11-16T14:17:48.815Z,12.67
2022-11-16T14:20:37.513Z,12.70
2022-11-16T14:23:28.521Z,12.63
2022-11-16T14:26:26.903Z,12.63
2022-11-16T14:29:25.904Z,12.56
2022-11-16T14:32:23.370Z,12.57
2022-11-16T14:35:25.476Z,12.48
2022-11-16T14:38:31.267Z,12.45
2022-11-16T14:41:22.585Z,12.34
2022-11-16T14:44:10.201Z,12.28
2022-11-16T14:46:56.376Z,12.26
2022-11-16T14:49:47.031Z,12.19
2022-11-16T14:52:38.573Z,12.12
2022-11-16T14:55:25.728Z,12.13
2022-11-16T14:58:13.578Z,12.10
2022-11-16T15:01:01.755Z,12.08
2022-11-16T15:04:02.261Z,12.02
2022-11-16T15:06:53.083Z,11.98
2022-11-16T15:09:41.028Z,11.92
2022-11-16T15:12:41.708Z,11.89
2022-11-16T15:15:29.600Z,11.90
2022-11-16T15:18:19.431Z,11.89
2022-11-16T15:21:04.293Z,11.79
2022-11-16T15:24:15.484Z,11.76
2022-11-16T15:26:57.939Z,11.68
2022-11-16T15:29:43.018Z,11.65
2022-11-16T15:32:28.382Z,11.63
2022-11-16T15:35:22.241Z,11.59
2022-11-16T15:38:07.110Z,11.55
2022-11-16T15:40:59.090Z,11.53
2022-11-16T15:44:12.138Z,11.52
2022-11-16T15:46:56.602Z,11.45
2022-11-16T15:49:42.736Z,11.35
2022-11-16T15:52:47.657Z,11.16
2022-11-16T15:55:40.670Z,11.04
2022-11-16T15:58:29.373Z,10.98
2022-11-16T16:01:15.325Z,10.89
2022-11-16T16:04:07.621Z,10.79
2022-11-16T16:06:55.998Z,10.62
2022-11-16T16:09:41.186Z,10.47
2022-11-16T16:12:28.913Z,10.30
2022-11-16T16:15:27.429Z,10.18
2022-11-16T16:18:39.177Z,10.00
2022-11-16T16:21:26.073Z,9.79
2022-11-16T16:24:33.727Z,9.76
2022-11-16T16:27:23.933Z,9.66
2022-11-16T16:30:14.368Z,9.58
2022-11-16T16:32:59.687Z,9.48
2022-11-16T16:35:45.457Z,9.46
2022-11-16T16:38:30.636Z,9.49
2022-11-16T16:41:23.791Z,9.79
2022-11-16T16:44:16.211Z,9.93
2022-11-16T16:47:01.290Z,9.87
2022-11-16T16:49:47.586Z,9.83
2022-11-16T16:52:32.290Z,9.79
2022-11-16T16:55:17.401Z,9.76
2022-11-16T16:58:02.813Z,9.63
2022-11-16T17:00:48.080Z,9.51
2022-11-16T17:03:33.580Z,9.44
2022-11-16T17:06:18.887Z,9.35
2022-11-16T17:09:04.238Z,9.29
2022-11-16T17:11:49.061Z,9.39
2022-11-16T17:14:34.042Z,9.42
2022-11-16T17:17:20.022Z,9.42
2022-11-16T17:20:06.032Z,9.41
2022-11-16T17:22:50.920Z,9.38
2022-11-16T17:25:37.676Z,9.30
2022-11-16T17:28:22.489Z,9.21
2022-11-16T17:31:10.562Z,9.12
2022-11-16T17:33:57.583Z,9.14
2022-11-16T17:36:43.145Z,9.27
2022-11-16T17:39:28.070Z,9.29
2022-11-16T17:42:13.254Z,9.31
2022-11-16T17:44:58.086Z,9.23
2022-11-16T17:47:43.152Z,9.28
2022-11-16T17:50:28.206Z,9.28
2022-11-16T17:53:13.463Z,9.18
2022-11-16T17:55:58.546Z,9.17
2022-11-16T17:58:45.108Z,9.03
2022-11-16T18:01:30.086Z,8.99
2022-11-16T18:04:14.930Z,8.98
2022-11-16T18:07:00.941Z,8.95
2022-11-16T18:09:45.961Z,8.83
2022-11-16T18:12:31.233Z,8.85
2022-11-16T18:15:28.433Z,8.89
2022-11-16T18:18:13.919Z,8.90
2022-11-16T18:21:00.246Z,8.80
2022-11-16T18:23:45.179Z,8.78
2022-11-16T18:26:30.146Z,8.82
2022-11-16T18:29:18.462Z,8.74
2022-11-16T18:32:03.909Z,8.73
2022-11-16T18:34:48.991Z,8.68
2022-11-16T18:37:34.049Z,8.72
2022-11-16T18:40:19.119Z,8.82
2022-11-16T18:43:04.023Z,8.92
2022-11-16T18:45:49.060Z,8.95
2022-11-16T18:48:34.208Z,9.00
2022-11-16T18:51:20.181Z,9.01
2022-11-16T18:54:05.183Z,9.04
2022-11-16T18:56:50.126Z,9.08
2022-11-16T18:59:35.235Z,9.07
2022-11-16T19:02:21.040Z,9.10
2022-11-16T19:05:07.382Z,9.10
2022-11-16T19:07:52.849Z,9.09
2022-11-16T19:10:38.338Z,9.08
2022-11-16T19:13:23.158Z,9.08
2022-11-16T19:16:10.273Z,9.12
2022-11-16T19:18:55.426Z,9.07
2022-11-16T19:21:41.677Z,9.09
2022-11-16T19:24:26.620Z,9.04
2022-11-16T19:27:11.980Z,9.02
2022-11-16T19:29:57.107Z,9.05
2022-11-16T19:32:42.326Z,9.02
2022-11-16T19:35:27.347Z,8.99
2022-11-16T19:38:12.276Z,8.99
2022-11-16T19:40:57.488Z,8.95
2022-11-16T19:43:42.887Z,8.95
2022-11-16T19:46:32.152Z,9.01
2022-11-16T19:49:20.171Z,9.02
2022-11-16T19:52:05.328Z,9.06
2022-11-16T19:54:50.175Z,9.08
2022-11-16T19:57:35.375Z,9.10
2022-11-16T20:00:20.461Z,9.09
2022-11-16T20:03:05.444Z,9.09
2022-11-16T20:05:50.786Z,9.07
2022-11-16T20:08:37.300Z,9.04
2022-11-16T20:11:24.210Z,9.07
2022-11-16T20:14:11.564Z,9.09
2022-11-16T20:16:56.241Z,9.13
2022-11-16T20:19:41.621Z,9.16
2022-11-16T20:22:26.413Z,9.16
2022-11-16T20:25:14.864Z,9.17
2022-11-16T20:28:00.106Z,9.18
2022-11-16T20:30:47.115Z,9.19
2022-11-16T20:33:33.710Z,9.19
2022-11-16T20:36:20.263Z,9.21
2022-11-16T20:39:05.049Z,9.27
2022-11-16T20:41:50.288Z,9.25
2022-11-16T20:44:35.476Z,9.31
2022-11-16T20:47:20.500Z,9.37
2022-11-16T20:50:05.817Z,9.39
2022-11-16T20:52:52.851Z,9.42
2022-11-16T20:55:38.269Z,9.43
2022-11-16T20:58:23.917Z,9.43
2022-11-16T21:01:12.704Z,9.40
2022-11-16T21:04:00.061Z,9.37
2022-11-16T21:06:45.181Z,9.42
2022-11-16T21:09:49.906Z,9.44
2022-11-16T21:12:53.134Z,9.53
2022-11-16T21:15:38.347Z,9.57
2022-11-16T21:18:27.832Z,9.56
2022-11-16T21:21:15.255Z,9.55
2022-11-16T21:24:00.484Z,9.58
2022-11-16T21:26:45.322Z,9.62
2022-11-16T21:29:30.569Z,9.67
2022-11-16T21:32:15.764Z,9.67
2022-11-16T21:35:00.531Z,9.69
2022-11-16T21:37:45.661Z,9.72
2022-11-16T21:40:30.657Z,9.76
2022-11-16T21:43:16.155Z,9.81
2022-11-16T21:46:03.289Z,9.90
2022-11-16T21:48:48.557Z,9.92
2022-11-16T21:51:33.547Z,9.92
2022-11-16T21:54:18.233Z,9.91
2022-11-16T21:57:03.251Z,9.93
2022-11-16T21:59:48.287Z,9.98
2022-11-16T22:02:34.090Z,9.94
2022-11-16T22:05:38.479Z,9.91
2022-11-16T22:08:23.493Z,9.88
2022-11-16T22:11:09.458Z,9.92
2022-11-16T22:13:54.406Z,9.86
2022-11-16T22:16:39.431Z,9.80
2022-11-16T22:19:24.658Z,9.79
2022-11-16T22:22:09.488Z,9.78
2022-11-16T22:24:54.584Z,9.83
2022-11-16T22:28:05.664Z,9.77
2022-11-16T22:30:48.731Z,9.77
2022-11-16T22:33:37.056Z,9.71
2022-11-16T22:36:22.294Z,9.72
2022-11-16T22:39:06.978Z,9.74
2022-11-16T22:41:52.291Z,9.79
2022-11-16T22:44:37.440Z,9.80
2022-11-16T22:47:22.499Z,9.85
2022-11-16T22:50:07.581Z,9.82
2022-11-16T22:52:52.302Z,9.81
2022-11-16T22:55:38.578Z,9.78
2022-11-16T22:58:23.624Z,9.88
2022-11-16T23:01:09.175Z,9.87
2022-11-16T23:03:54.286Z,9.90
2022-11-16T23:06:39.134Z,9.94
2022-11-16T23:09:24.302Z,9.92
2022-11-16T23:12:27.705Z,9.94
2022-11-16T23:15:32.373Z,9.94
2022-11-16T23:18:19.421Z,9.93
2022-11-16T23:21:23.258Z,9.93
2022-11-16T23:24:31.437Z,9.98
2022-11-16T23:27:31.418Z,10.10
2022-11-16T23:30:16.619Z,10.03
2022-11-16T23:33:02.208Z,10.08
2022-11-16T23:35:47.093Z,10.11
2022-11-16T23:38:32.197Z,10.13
2022-11-16T23:41:36.202Z,10.11
2022-11-16T23:44:21.173Z,10.11
2022-11-16T23:47:06.138Z,10.09
2022-11-16T23:49:51.562Z,10.18
2022-11-16T23:52:36.520Z,10.15
2022-11-16T23:55:22.988Z,10.14
2022-11-16T23:58:13.594Z,10.26
